createdAt,value
2024-01-06T00:02:20.264Z,19.81
2024-01-06T00:04:46.889Z,19.79
2024-01-06T00:07:14.760Z,19.77
2024-01-06T00:09:41.459Z,19.71
2024-01-06T00:12:08.158Z,19.67
2024-01-06T00:14:34.810Z,19.62
2024-01-06T00:17:01.477Z,19.57
2024-01-06T00:19:28.250Z,19.54
2024-01-06T00:21:54.870Z,19.48
2024-01-06T00:24:21.511Z,19.45
2024-01-06T00:26:48.128Z,19.40
2024-01-06T00:29:14.715Z,19.36
2024-01-06T00:31:41.469Z,19.31
2024-01-06T00:34:08.172Z,19.27
2024-01-06T00:36:34.770Z,19.21
2024-01-06T00:39:01.341Z,19.17
2024-01-06T00:41:27.943Z,19.10
2024-01-06T00:43:54.553Z,19.07
2024-01-06T00:46:21.147Z,19.03
2024-01-06T00:48:47.834Z,18.98
2024-01-06T00:51:14.543Z,18.93
2024-01-06T00:53:41.102Z,18.89
2024-01-06T00:56:07.757Z,18.85
2024-01-06T00:58:34.345Z,18.81
2024-01-06T01:01:01.055Z,18.77
2024-01-06T01:03:27.901Z,18.73
2024-01-06T01:05:54.771Z,18.70
2024-01-06T01:08:21.389Z,18.66
2024-01-06T01:10:47.951Z,18.62
2024-01-06T01:13:14.493Z,18.58
2024-01-06T01:15:41.131Z,18.54
2024-01-06T01:18:09.185Z,18.51
2024-01-06T01:20:35.910Z,18.47
2024-01-06T01:23:02.461Z,18.44
2024-01-06T01:25:29.103Z,18.41
2024-01-06T01:27:55.705Z,18.38
2024-01-06T01:30:22.372Z,18.36
2024-01-06T01:32:49.101Z,18.31
2024-01-06T01:35:16.103Z,18.29
2024-01-06T01:37:42.770Z,18.25
2024-01-06T01:40:09.838Z,18.22
2024-01-06T01:42:36.477Z,18.19
2024-01-06T01:45:03.131Z,18.18
2024-01-06T01:47:29.874Z,18.14
2024-01-06T01:49:57.650Z,18.12
2024-01-06T01:52:24.609Z,18.10
2024-01-06T01:54:53.802Z,18.07
2024-01-06T01:57:24.595Z,18.06
2024-01-06T01:59:51.242Z,18.04
2024-01-06T02:02:18.300Z,18.00
2024-01-06T02:04:46.721Z,17.99
2024-01-06T02:07:13.308Z,17.98
2024-01-06T02:09:39.938Z,17.93
2024-01-06T02:12:06.820Z,17.92
2024-01-06T02:14:33.782Z,17.90
2024-01-06T02:17:00.362Z,17.89
2024-01-06T02:19:26.986Z,17.86
2024-01-06T02:21:54.698Z,17.84
2024-01-06T02:24:22.049Z,17.81
2024-01-06T02:26:48.725Z,17.81
2024-01-06T02:29:15.284Z,17.79
2024-01-06T02:31:42.058Z,17.76
2024-01-06T02:34:08.840Z,17.75
2024-01-06T02:36:35.540Z,17.73
2024-01-06T02:39:02.408Z,17.72
2024-01-06T02:41:28.950Z,17.69
2024-01-06T02:43:56.676Z,17.68
2024-01-06T02:46:23.277Z,17.67
2024-01-06T02:48:49.961Z,17.65
2024-01-06T02:51:16.745Z,17.64
2024-01-06T02:53:43.445Z,17.62
2024-01-06T02:56:13.534Z,17.60
2024-01-06T02:58:40.540Z,17.59
2024-01-06T03:01:07.296Z,17.57
2024-01-06T03:03:34.283Z,17.57
2024-01-06T03:06:01.133Z,17.55
2024-01-06T03:08:28.026Z,17.52
2024-01-06T03:10:54.623Z,17.51
2024-01-06T03:13:21.386Z,17.49
2024-01-06T03:15:48.324Z,17.48
2024-01-06T03:18:15.200Z,17.46
2024-01-06T03:20:41.931Z,17.47
2024-01-06T03:23:08.566Z,17.52
2024-01-06T03:25:35.120Z,17.58
2024-01-06T03:28:01.970Z,17.62
2024-01-06T03:30:28.636Z,17.66
2024-01-06T03:32:55.307Z,17.69
2024-01-06T03:35:21.956Z,17.73
2024-01-06T03:37:48.813Z,17.75
2024-01-06T03:40:15.428Z,17.76
2024-01-06T03:42:42.032Z,17.79
2024-01-06T03:45:09.023Z,17.80
2024-01-06T03:47:35.662Z,17.79
2024-01-06T03:50:02.229Z,17.81
2024-01-06T03:52:28.855Z,17.80
2024-01-06T03:54:55.469Z,17.82
2024-01-06T03:57:22.200Z,17.81
2024-01-06T03:59:48.832Z,17.81
2024-01-06T04:02:15.380Z,17.79
2024-01-06T04:04:41.977Z,17.76
2024-01-06T04:07:08.549Z,17.76
2024-01-06T04:09:35.194Z,17.79
2024-01-06T04:12:02.288Z,17.81
2024-01-06T04:14:29.240Z,17.88
2024-01-06T04:16:57.654Z,17.92
2024-01-06T04:19:25.068Z,17.99
2024-01-06T04:21:52.067Z,18.04
2024-01-06T04:24:18.976Z,18.07
2024-01-06T04:26:47.057Z,18.06
2024-01-06T04:29:13.805Z,18.03
2024-01-06T04:31:41.827Z,17.98
2024-01-06T04:34:08.687Z,17.96
2024-01-06T04:36:35.405Z,17.95
2024-01-06T04:39:02.187Z,17.93
2024-01-06T04:41:28.849Z,17.90
2024-01-06T04:43:55.433Z,17.86
2024-01-06T04:46:22.013Z,17.81
2024-01-06T04:48:48.678Z,17.75
2024-01-06T04:51:16.073Z,17.71
2024-01-06T04:53:42.653Z,17.66
2024-01-06T04:56:09.194Z,17.60
2024-01-06T04:58:35.971Z,17.56
2024-01-06T05:01:03.476Z,17.50
2024-01-06T05:03:30.360Z,17.47
2024-01-06T05:05:57.239Z,17.43
2024-01-06T05:08:24.013Z,17.38
2024-01-06T05:10:50.720Z,17.35
2024-01-06T05:13:18.530Z,17.30
2024-01-06T05:15:45.179Z,17.25
2024-01-06T05:18:11.966Z,17.22
2024-01-06T05:20:38.696Z,17.18
2024-01-06T05:23:05.214Z,17.15
2024-01-06T05:25:31.786Z,17.09
2024-01-06T05:27:58.506Z,17.12
2024-01-06T05:30:25.482Z,17.18
2024-01-06T05:32:52.202Z,17.26
2024-01-06T05:35:18.856Z,17.36
2024-01-06T05:37:45.425Z,17.44
2024-01-06T05:40:12.795Z,17.56
2024-01-06T05:42:39.578Z,17.64
2024-01-06T05:45:06.717Z,17.72
2024-01-06T05:47:33.760Z,17.78
2024-01-06T05:50:00.500Z,17.83
2024-01-06T05:52:27.081Z,17.82
2024-01-06T05:54:53.850Z,17.80
2024-01-06T05:57:20.575Z,17.75
2024-01-06T05:59:47.301Z,17.76
2024-01-06T06:02:14.773Z,17.79
2024-01-06T06:04:41.479Z,17.79
2024-01-06T06:07:08.207Z,17.79
2024-01-06T06:09:35.945Z,17.74
2024-01-06T06:12:02.726Z,17.68
2024-01-06T06:14:30.470Z,17.61
2024-01-06T06:16:57.998Z,17.56
2024-01-06T06:19:24.859Z,17.49
2024-01-06T06:21:51.582Z,17.46
2024-01-06T06:24:18.282Z,17.39
2024-01-06T06:26:44.954Z,17.34
2024-01-06T06:29:11.582Z,17.28
2024-01-06T06:31:38.287Z,17.23
2024-01-06T06:34:08.697Z,17.19
2024-01-06T06:36:36.192Z,17.17
2024-01-06T06:39:05.193Z,17.24
2024-01-06T06:41:31.987Z,17.41
2024-01-06T06:43:58.852Z,17.54
2024-01-06T06:46:25.658Z,17.68
2024-01-06T06:48:52.510Z,17.77
2024-01-06T06:51:19.463Z,17.83
2024-01-06T06:53:48.274Z,17.81
2024-01-06T06:56:18.207Z,17.76
2024-01-06T06:58:44.940Z,17.73
2024-01-06T07:01:11.583Z,17.73
2024-01-06T07:03:38.689Z,17.73
2024-01-06T07:06:05.482Z,17.71
2024-01-06T07:08:32.066Z,17.68
2024-01-06T07:10:58.631Z,17.63
2024-01-06T07:13:25.222Z,17.57
2024-01-06T07:15:52.488Z,17.51
2024-01-06T07:18:24.320Z,17.47
2024-01-06T07:20:50.989Z,17.43
2024-01-06T07:23:17.709Z,17.38
2024-01-06T07:25:44.330Z,17.34
2024-01-06T07:28:10.906Z,17.27
2024-01-06T07:30:37.594Z,17.25
2024-01-06T07:33:04.410Z,17.23
2024-01-06T07:35:30.985Z,17.20
2024-01-06T07:37:57.551Z,17.17
2024-01-06T07:40:26.587Z,17.15
2024-01-06T07:42:53.239Z,17.10
2024-01-06T07:45:19.900Z,17.07
2024-01-06T07:47:46.570Z,17.03
2024-01-06T07:50:13.180Z,17.02
2024-01-06T07:52:39.734Z,16.98
2024-01-06T07:55:06.431Z,16.97
2024-01-06T07:57:33.272Z,16.95
2024-01-06T08:00:02.421Z,16.94
2024-01-06T08:02:31.013Z,17.03
2024-01-06T08:04:57.986Z,17.16
2024-01-06T08:07:24.865Z,17.34
2024-01-06T08:09:51.499Z,17.49
2024-01-06T08:12:18.144Z,17.64
2024-01-06T08:14:44.773Z,17.79
2024-01-06T08:17:11.347Z,17.92
2024-01-06T08:19:38.125Z,18.05
2024-01-06T08:22:04.784Z,18.17
2024-01-06T08:24:31.333Z,18.29
2024-01-06T08:26:58.523Z,18.40
2024-01-06T08:29:25.067Z,18.51
2024-01-06T08:31:53.433Z,18.59
2024-01-06T08:34:20.349Z,18.69
2024-01-06T08:36:47.281Z,18.77
2024-01-06T08:39:14.178Z,18.85
2024-01-06T08:41:40.782Z,18.91
2024-01-06T08:44:07.328Z,18.99
2024-01-06T08:46:33.921Z,19.06
2024-01-06T08:49:01.698Z,19.09
2024-01-06T08:51:28.510Z,19.14
2024-01-06T08:53:55.108Z,19.16
2024-01-06T08:56:21.820Z,19.19
2024-01-06T08:58:48.368Z,19.20
2024-01-06T09:01:15.080Z,19.21
2024-01-06T09:03:41.896Z,19.19
2024-01-06T09:06:08.574Z,19.17
2024-01-06T09:08:35.139Z,19.13
2024-01-06T09:11:01.769Z,19.08
2024-01-06T09:13:28.326Z,19.02
2024-01-06T09:15:55.304Z,18.95
2024-01-06T09:18:22.232Z,18.87
2024-01-06T09:20:49.108Z,18.80
2024-01-06T09:23:17.069Z,18.74
2024-01-06T09:25:43.710Z,18.66
2024-01-06T09:28:11.989Z,18.59
2024-01-06T09:30:38.876Z,18.55
2024-01-06T09:33:05.699Z,18.53
2024-01-06T09:35:33.287Z,18.50
2024-01-06T09:37:59.866Z,18.46
2024-01-06T09:40:26.448Z,18.45
2024-01-06T09:42:54.733Z,18.41
2024-01-06T09:45:22.224Z,18.32
2024-01-06T09:47:52.934Z,18.24
2024-01-06T09:50:20.636Z,18.23
2024-01-06T09:52:56.583Z,18.27
2024-01-06T09:55:27.272Z,18.32
2024-01-06T09:57:55.066Z,18.35
2024-01-06T10:00:22.758Z,18.39
2024-01-06T10:02:50.179Z,18.39
2024-01-06T10:05:20.179Z,18.37
2024-01-06T10:07:47.122Z,18.38
2024-01-06T10:10:14.425Z,18.42
2024-01-06T10:12:42.325Z,18.46
2024-01-06T10:15:11.124Z,18.52
2024-01-06T10:17:42.088Z,18.57
2024-01-06T10:20:13.202Z,18.64
2024-01-06T10:22:42.491Z,18.69
2024-01-06T10:25:10.238Z,18.74
2024-01-06T10:27:38.384Z,18.79
2024-01-06T10:30:08.726Z,18.84
2024-01-06T10:32:37.389Z,18.87
2024-01-06T10:35:08.296Z,18.90
2024-01-06T10:37:35.097Z,18.91
2024-01-06T10:40:08.711Z,18.91
2024-01-06T10:42:35.856Z,18.87
2024-01-06T10:45:03.206Z,18.87
2024-01-06T10:47:33.186Z,18.82
2024-01-06T10:50:02.146Z,18.76
2024-01-06T10:52:29.660Z,18.69
2024-01-06T10:54:57.063Z,18.61
2024-01-06T10:57:24.656Z,18.56
2024-01-06T10:59:52.718Z,18.50
2024-01-06T11:02:20.144Z,18.43
2024-01-06T11:04:48.254Z,18.38
2024-01-06T11:07:17.299Z,18.34
2024-01-06T11:10:01.489Z,18.25
2024-01-06T11:12:28.596Z,18.22
2024-01-06T11:14:55.579Z,18.18
2024-01-06T11:17:55.065Z,18.18
2024-01-06T11:20:23.234Z,18.24
2024-01-06T11:22:50.942Z,18.30
2024-01-06T11:25:20.994Z,18.36
2024-01-06T11:27:49.590Z,18.42
2024-01-06T11:30:24.583Z,18.45
2024-01-06T11:32:56.638Z,18.50
2024-01-06T11:35:25.159Z,18.55
2024-01-06T11:37:56.071Z,18.57
2024-01-06T11:40:22.712Z,18.61
2024-01-06T11:42:58.094Z,18.65
2024-01-06T11:45:26.466Z,18.67
2024-01-06T11:48:03.610Z,18.66
2024-01-06T11:50:33.371Z,18.65
2024-01-06T11:53:02.998Z,18.65
2024-01-06T11:55:30.073Z,18.63
2024-01-06T11:57:58.816Z,18.59
2024-01-06T12:00:25.610Z,18.56
2024-01-06T12:02:57.610Z,18.54
2024-01-06T12:05:25.989Z,18.53
2024-01-06T12:07:56.253Z,18.52
2024-01-06T12:10:23.813Z,18.50
2024-01-06T12:13:18.988Z,18.49
2024-01-06T12:15:45.684Z,18.52
2024-01-06T12:18:12.455Z,18.52
2024-01-06T12:20:39.273Z,18.53
2024-01-06T12:23:07.590Z,18.52
2024-01-06T12:25:39.936Z,18.52
2024-01-06T12:28:07.851Z,18.51
2024-01-06T12:30:36.459Z,18.49
2024-01-06T12:33:03.597Z,18.50
2024-01-06T12:35:30.294Z,18.52
2024-01-06T12:37:57.136Z,18.53
2024-01-06T12:40:23.931Z,18.56
2024-01-06T12:42:50.583Z,18.58
2024-01-06T12:45:17.722Z,18.62
2024-01-06T12:47:44.776Z,18.65
2024-01-06T12:50:11.573Z,18.67
2024-01-06T12:52:40.100Z,18.68
2024-01-06T12:55:08.617Z,18.68
2024-01-06T12:57:35.639Z,18.67
2024-01-06T13:00:02.707Z,18.66
2024-01-06T13:02:29.593Z,18.65
2024-01-06T13:04:56.366Z,18.61
2024-01-06T13:07:23.344Z,18.58
2024-01-06T13:09:50.390Z,18.57
2024-01-06T13:12:19.628Z,18.55
2024-01-06T13:14:48.412Z,18.54
2024-01-06T13:17:18.027Z,18.52
2024-01-06T13:19:45.117Z,18.50
2024-01-06T13:22:11.791Z,18.48
2024-01-06T13:24:39.116Z,18.45
2024-01-06T13:27:05.886Z,18.44
2024-01-06T13:29:32.799Z,18.42
2024-01-06T13:32:00.703Z,18.39
2024-01-06T13:34:27.994Z,18.39
2024-01-06T13:36:57.140Z,18.37
2024-01-06T13:39:24.621Z,18.36
2024-01-06T13:41:51.358Z,18.39
2024-01-06T13:44:17.998Z,18.42
2024-01-06T13:46:48.773Z,18.43
2024-01-06T13:49:15.828Z,18.44
2024-01-06T13:51:42.753Z,18.49
2024-01-06T13:54:10.545Z,18.52
2024-01-06T13:56:38.042Z,18.52
2024-01-06T13:59:04.803Z,18.52
2024-01-06T14:01:31.810Z,18.55
2024-01-06T14:03:59.352Z,18.62
2024-01-06T14:06:26.927Z,18.70
2024-01-06T14:08:53.753Z,18.78
2024-01-06T14:11:20.334Z,18.83
2024-01-06T14:13:50.501Z,18.87
2024-01-06T14:16:17.081Z,18.90
2024-01-06T14:18:43.781Z,18.93
2024-01-06T14:21:11.687Z,18.94
2024-01-06T14:23:38.407Z,18.96
2024-01-06T14:26:05.000Z,18.99
2024-01-06T14:28:31.608Z,19.01
2024-01-06T14:30:58.279Z,19.01
2024-01-06T14:33:25.018Z,18.97
2024-01-06T14:35:51.917Z,18.91
2024-01-06T14:38:18.513Z,18.87
2024-01-06T14:40:45.165Z,18.83
2024-01-06T14:43:11.800Z,18.79
2024-01-06T14:45:39.314Z,18.74
2024-01-06T14:48:06.635Z,18.72
2024-01-06T14:50:33.255Z,18.69
2024-01-06T14:52:59.826Z,18.66
2024-01-06T14:55:26.421Z,18.65
2024-01-06T14:57:53.014Z,18.72
2024-01-06T15:00:19.813Z,18.84
2024-01-06T15:02:49.846Z,18.96
2024-01-06T15:05:17.055Z,19.06
2024-01-06T15:07:43.826Z,19.13
2024-01-06T15:10:11.747Z,19.18
2024-01-06T15:12:38.508Z,19.23
2024-01-06T15:15:06.999Z,19.28
2024-01-06T15:17:33.737Z,19.33
2024-01-06T15:20:00.415Z,19.38
2024-01-06T15:22:29.190Z,19.45
2024-01-06T15:24:57.938Z,19.53
2024-01-06T15:27:25.529Z,19.60
2024-01-06T15:29:52.290Z,19.65
2024-01-06T15:32:19.425Z,19.69
2024-01-06T15:34:46.036Z,19.74
2024-01-06T15:37:12.591Z,19.76
2024-01-06T15:39:39.226Z,19.79
2024-01-06T15:42:05.892Z,19.81
2024-01-06T15:44:34.575Z,19.82
2024-01-06T15:47:01.285Z,19.84
2024-01-06T15:49:28.559Z,19.81
2024-01-06T15:51:55.397Z,19.81
2024-01-06T15:54:24.153Z,19.80
2024-01-06T15:56:51.076Z,19.76
2024-01-06T15:59:17.664Z,19.70
2024-01-06T16:01:44.405Z,19.64
2024-01-06T16:04:11.299Z,19.59
2024-01-06T16:06:38.001Z,19.53
2024-01-06T16:09:06.878Z,19.45
2024-01-06T16:11:33.687Z,19.45
2024-01-06T16:14:00.264Z,19.42
2024-01-06T16:16:30.091Z,19.40
2024-01-06T16:18:56.864Z,19.37
2024-01-06T16:21:24.817Z,19.34
2024-01-06T16:23:52.316Z,19.32
2024-01-06T16:26:20.069Z,19.30
2024-01-06T16:28:48.005Z,19.26
2024-01-06T16:31:14.649Z,19.24
2024-01-06T16:33:41.505Z,19.23
2024-01-06T16:36:11.358Z,19.24
2024-01-06T16:38:38.015Z,19.34
2024-01-06T16:41:05.143Z,19.46
2024-01-06T16:43:35.537Z,19.60
2024-01-06T16:46:02.157Z,19.71
2024-01-06T16:48:28.936Z,19.81
2024-01-06T16:50:55.593Z,19.91
2024-01-06T16:53:22.158Z,19.99
2024-01-06T16:55:48.731Z,20.05
2024-01-06T16:58:15.398Z,20.10
2024-01-06T17:00:42.126Z,20.13
2024-01-06T17:03:09.249Z,20.13
2024-01-06T17:05:36.108Z,20.08
2024-01-06T17:08:04.682Z,20.03
2024-01-06T17:10:31.283Z,19.97
2024-01-06T17:12:57.939Z,19.93
2024-01-06T17:15:27.311Z,19.88
2024-01-06T17:17:54.027Z,19.84
2024-01-06T17:20:20.704Z,19.78
2024-01-06T17:22:47.673Z,19.70
2024-01-06T17:25:16.201Z,19.63
2024-01-06T17:27:46.379Z,19.56
2024-01-06T17:30:15.703Z,19.48
2024-01-06T17:32:42.641Z,19.44
2024-01-06T17:35:09.633Z,19.38
2024-01-06T17:37:36.240Z,19.34
2024-01-06T17:40:03.826Z,19.29
2024-01-06T17:42:31.339Z,19.25
2024-01-06T17:44:59.216Z,19.21
2024-01-06T17:47:26.004Z,19.19
2024-01-06T17:49:52.749Z,19.17
2024-01-06T17:52:19.759Z,19.16
2024-01-06T17:54:46.450Z,19.16
2024-01-06T17:57:18.869Z,19.21
2024-01-06T17:59:46.289Z,19.31
2024-01-06T18:02:13.963Z,19.38
2024-01-06T18:04:40.815Z,19.47
2024-01-06T18:07:09.137Z,19.55
2024-01-06T18:09:36.014Z,19.64
2024-01-06T18:12:02.646Z,19.70
2024-01-06T18:14:36.061Z,19.76
2024-01-06T18:17:04.734Z,19.81
2024-01-06T18:19:31.452Z,19.85
2024-01-06T18:21:58.443Z,19.86
2024-01-06T18:24:25.088Z,19.83
2024-01-06T18:26:52.175Z,19.80
2024-01-06T18:29:19.987Z,19.76
2024-01-06T18:31:46.841Z,19.72
2024-01-06T18:34:13.653Z,19.68
2024-01-06T18:36:40.486Z,19.64
2024-01-06T18:39:08.622Z,19.59
2024-01-06T18:41:35.239Z,19.52
2024-01-06T18:44:03.369Z,19.46
2024-01-06T18:46:30.118Z,19.39
2024-01-06T18:48:56.923Z,19.34
2024-01-06T18:51:23.655Z,19.28
2024-01-06T18:53:50.210Z,19.22
2024-01-06T18:56:16.800Z,19.16
2024-01-06T18:58:43.477Z,19.13
2024-01-06T19:01:10.137Z,19.09
2024-01-06T19:03:36.892Z,19.05
2024-01-06T19:06:03.646Z,19.02
2024-01-06T19:08:30.237Z,19.00
2024-01-06T19:10:56.789Z,18.98
2024-01-06T19:13:23.339Z,18.97
2024-01-06T19:15:50.071Z,19.04
2024-01-06T19:18:16.777Z,19.10
2024-01-06T19:20:45.455Z,19.19
2024-01-06T19:23:12.258Z,19.25
2024-01-06T19:25:38.825Z,19.24
2024-01-06T19:28:06.545Z,19.20
2024-01-06T19:30:33.349Z,19.17
2024-01-06T19:33:00.138Z,19.14
2024-01-06T19:35:28.361Z,19.14
2024-01-06T19:37:54.924Z,19.11
2024-01-06T19:40:22.600Z,19.09
2024-01-06T19:42:52.198Z,19.07
2024-01-06T19:45:19.106Z,19.06
2024-01-06T19:47:45.950Z,19.05
2024-01-06T19:50:13.296Z,19.05
2024-01-06T19:52:39.949Z,19.04
2024-01-06T19:55:10.929Z,19.07
2024-01-06T19:57:37.777Z,19.11
2024-01-06T20:00:05.802Z,19.17
2024-01-06T20:02:32.428Z,19.21
2024-01-06T20:04:59.194Z,19.23
2024-01-06T20:07:29.835Z,19.21
2024-01-06T20:09:58.048Z,19.20
2024-01-06T20:12:25.940Z,19.19
2024-01-06T20:14:57.802Z,19.17
2024-01-06T20:17:25.440Z,19.14
2024-01-06T20:19:52.656Z,19.11
2024-01-06T20:22:19.719Z,19.06
2024-01-06T20:24:46.439Z,19.01
2024-01-06T20:27:13.348Z,18.96
2024-01-06T20:29:39.939Z,18.87
2024-01-06T20:32:07.024Z,18.86
2024-01-06T20:34:34.114Z,18.86
2024-01-06T20:37:01.169Z,18.83
2024-01-06T20:39:27.904Z,18.81
2024-01-06T20:41:54.598Z,18.78
2024-01-06T20:44:21.616Z,18.74
2024-01-06T20:46:49.784Z,18.71
2024-01-06T20:49:16.529Z,18.67
2024-01-06T20:51:43.148Z,18.55
2024-01-06T20:54:09.707Z,18.51
2024-01-06T20:56:37.418Z,18.48
2024-01-06T20:59:04.034Z,18.49
2024-01-06T21:01:30.846Z,18.48
2024-01-06T21:03:57.594Z,18.40
2024-01-06T21:06:24.218Z,18.35
2024-01-06T21:08:50.961Z,18.30
2024-01-06T21:11:17.544Z,18.24
2024-01-06T21:13:44.137Z,18.19
2024-01-06T21:16:10.832Z,18.17
2024-01-06T21:18:40.345Z,18.12
2024-01-06T21:21:06.959Z,18.10
2024-01-06T21:23:40.530Z,18.07
2024-01-06T21:26:14.485Z,18.07
2024-01-06T21:28:41.064Z,18.05
2024-01-06T21:31:07.829Z,18.03
2024-01-06T21:33:34.585Z,18.00
2024-01-06T21:36:01.236Z,17.98
2024-01-06T21:38:27.769Z,17.94
2024-01-06T21:40:54.350Z,17.91
2024-01-06T21:43:21.110Z,17.89
2024-01-06T21:45:47.890Z,17.87
2024-01-06T21:48:14.659Z,17.84
2024-01-06T21:50:41.906Z,17.83
2024-01-06T21:53:08.608Z,17.80
2024-01-06T21:55:35.158Z,17.80
2024-01-06T21:58:01.910Z,17.79
2024-01-06T22:00:28.745Z,17.75
2024-01-06T22:02:55.413Z,17.75
2024-01-06T22:05:22.164Z,17.70
2024-01-06T22:07:48.821Z,17.68
2024-01-06T22:10:16.251Z,17.66
2024-01-06T22:12:42.889Z,17.63
2024-01-06T22:15:10.221Z,17.63
2024-01-06T22:17:36.868Z,17.56
2024-01-06T22:20:05.102Z,17.53
2024-01-06T22:22:31.765Z,17.49
2024-01-06T22:24:58.476Z,17.44
2024-01-06T22:27:25.286Z,17.39
2024-01-06T22:29:52.005Z,17.34
2024-01-06T22:32:18.574Z,17.31
2024-01-06T22:34:45.551Z,17.24
2024-01-06T22:37:12.531Z,17.20
2024-01-06T22:39:42.426Z,17.19
2024-01-06T22:42:09.152Z,17.15
2024-01-06T22:44:36.431Z,17.13
2024-01-06T22:47:03.269Z,17.10
2024-01-06T22:49:30.087Z,17.06
2024-01-06T22:51:56.876Z,17.05
2024-01-06T22:54:23.696Z,17.01
2024-01-06T22:56:50.343Z,17.00
2024-01-06T22:59:17.211Z,16.96
2024-01-06T23:01:44.000Z,16.94
2024-01-06T23:04:10.672Z,16.93
2024-01-06T23:06:37.585Z,16.90
2024-01-06T23:09:05.656Z,16.89
2024-01-06T23:11:32.541Z,16.89
2024-01-06T23:13:59.539Z,16.87
2024-01-06T23:16:26.835Z,16.85
2024-01-06T23:18:54.227Z,16.84
2024-01-06T23:21:20.935Z,16.82
2024-01-06T23:23:47.905Z,16.80
2024-01-06T23:26:14.546Z,16.79
2024-01-06T23:28:41.134Z,16.76
2024-01-06T23:31:09.326Z,16.75
2024-01-06T23:33:36.229Z,16.73
2024-01-06T23:36:04.030Z,16.72
2024-01-06T23:38:30.664Z,16.69
2024-01-06T23:40:57.298Z,16.68
2024-01-06T23:43:23.905Z,16.66
2024-01-06T23:45:50.620Z,16.63
2024-01-06T23:48:17.253Z,16.62
2024-01-06T23:50:43.838Z,16.60
2024-01-06T23:53:12.153Z,16.58
2024-01-06T23:55:38.737Z,16.56
2024-01-06T23:58:05.479Z,16.55
